createdAt,value
2018-04-09T00:01:12.260Z,80.60
2018-04-09T00:02:12.201Z,78.22
2018-04-09T00:04:03.970Z,76.98
2018-04-09T00:05:03.900Z,77.07
2018-04-09T00:06:55.637Z,73.93
2018-04-09T00:07:55.576Z,70.88
2018-04-09T00:09:47.357Z,70.21
2018-04-09T00:10:47.281Z,70.21
2018-04-09T00:12:39.034Z,76.03
2018-04-09T00:13:38.972Z,74.69
2018-04-09T00:15:30.744Z,69.07
2018-04-09T00:16:30.671Z,68.40
2018-04-09T00:18:22.428Z,75.26
2018-04-09T00:19:22.366Z,76.40
2018-04-09T00:21:14.123Z,74.50
2018-04-09T00:22:14.048Z,71.93
2018-04-09T00:24:05.837Z,68.88
2018-04-09T00:25:05.758Z,75.07
2018-04-09T00:26:57.514Z,69.07
2018-04-09T00:27:57.448Z,70.88
2018-04-09T00:29:49.234Z,74.40
2018-04-09T00:30:49.155Z,74.50
2018-04-09T00:32:40.929Z,77.07
2018-04-09T00:33:40.867Z,75.16
2018-04-09T00:35:32.628Z,73.32
2018-04-09T00:36:32.557Z,74.12
2018-04-09T00:38:24.309Z,72.60
2018-04-09T00:39:24.248Z,71.73
2018-04-09T00:41:16.034Z,70.78
2018-04-09T00:42:15.961Z,70.12
2018-04-09T00:44:07.719Z,72.21
2018-04-09T00:45:07.650Z,70.97
2018-04-09T00:46:59.416Z,72.56
2018-04-09T00:47:59.340Z,74.69
2018-04-09T00:49:51.104Z,71.17
2018-04-09T00:50:51.026Z,72.75
2018-04-09T00:52:42.802Z,76.37
2018-04-09T00:53:42.719Z,73.03
2018-04-09T00:55:34.488Z,70.84
2018-04-09T00:56:34.419Z,70.56
2018-04-09T00:58:26.166Z,74.46
2018-04-09T00:59:26.103Z,72.46
2018-04-09T01:01:17.858Z,69.79
2018-04-09T01:02:17.789Z,68.46
2018-04-09T01:04:09.561Z,71.70
2018-04-09T01:05:09.496Z,69.99
2018-04-09T01:07:01.264Z,67.13
2018-04-09T01:08:01.183Z,67.51
2018-04-09T01:09:52.956Z,67.86
2018-04-09T01:10:52.882Z,65.13
2018-04-09T01:12:44.635Z,63.23
2018-04-09T01:13:44.572Z,63.51
2018-04-09T01:15:36.350Z,65.70
2018-04-09T01:16:36.281Z,64.37
2018-04-09T01:18:28.019Z,67.13
2018-04-09T01:19:27.957Z,67.51
2018-04-09T01:21:19.725Z,69.13
2018-04-09T01:22:19.658Z,71.47
2018-04-09T01:24:11.407Z,64.18
2018-04-09T01:25:11.339Z,68.05
2018-04-09T01:27:03.104Z,67.00
2018-04-09T01:28:03.030Z,66.33
2018-04-09T01:29:54.791Z,63.96
2018-04-09T01:30:54.711Z,64.05
2018-04-09T01:32:46.484Z,63.48
2018-04-09T01:33:46.415Z,62.15
2018-04-09T01:35:38.171Z,63.39
2018-04-09T01:36:38.101Z,63.86
2018-04-09T01:38:29.875Z,63.20
2018-04-09T01:39:29.809Z,60.44
2018-04-09T01:41:21.563Z,60.44
2018-04-09T01:42:21.486Z,60.15
2018-04-09T01:44:13.266Z,58.06
2018-04-09T01:45:13.204Z,58.44
2018-04-09T01:47:04.976Z,63.29
2018-04-09T01:48:04.900Z,61.58
2018-04-09T01:49:56.657Z,60.53
2018-04-09T01:50:56.597Z,59.20
2018-04-09T01:52:48.365Z,55.39
2018-04-09T01:53:48.293Z,56.15
2018-04-09T01:55:40.075Z,58.06
2018-04-09T01:56:40.015Z,57.87
2018-04-09T01:58:31.757Z,61.00
2018-04-09T01:59:31.695Z,63.20
2018-04-09T02:01:23.452Z,63.57
2018-04-09T02:02:23.377Z,69.57
2018-04-09T02:04:15.128Z,61.86
2018-04-09T02:05:15.063Z,59.29
2018-04-09T02:07:06.834Z,56.05
2018-04-09T02:08:06.757Z,54.15
2018-04-09T02:09:58.504Z,53.67
2018-04-09T02:10:58.447Z,54.15
2018-04-09T02:12:50.197Z,55.39
2018-04-09T02:13:50.128Z,54.72
2018-04-09T02:15:41.873Z,59.58
2018-04-09T02:16:41.809Z,57.48
2018-04-09T02:18:33.586Z,55.29
2018-04-09T02:19:33.512Z,56.24
2018-04-09T02:21:25.286Z,57.36
2018-04-09T02:22:25.213Z,57.26
2018-04-09T02:24:16.971Z,53.84
2018-04-09T02:25:16.915Z,55.08
2018-04-09T02:27:08.675Z,52.22
2018-04-09T02:28:08.598Z,52.32
2018-04-09T02:30:00.366Z,52.13
2018-04-09T02:31:00.286Z,52.98
2018-04-09T02:32:52.052Z,56.60
2018-04-09T02:33:51.968Z,56.79
2018-04-09T02:35:43.724Z,53.17
2018-04-09T02:36:43.660Z,56.12
2018-04-09T02:38:35.440Z,53.75
2018-04-09T02:39:35.364Z,51.27
2018-04-09T02:41:27.137Z,50.79
2018-04-09T02:42:27.048Z,48.90
2018-04-09T02:44:18.810Z,50.79
2018-04-09T02:45:18.747Z,47.82
2018-04-09T02:47:10.515Z,45.95
2018-04-09T02:48:10.445Z,45.56
2018-04-09T02:50:02.229Z,44.90
2018-04-09T02:51:02.156Z,52.32
2018-04-09T02:52:54.012Z,53.75
2018-04-09T02:53:53.940Z,49.46
2018-04-09T02:55:45.683Z,49.85
2018-04-09T02:56:45.617Z,49.37
2018-04-09T02:58:37.391Z,48.90
2018-04-09T02:59:37.302Z,50.89
2018-04-09T03:01:29.058Z,54.03
2018-04-09T03:02:28.988Z,52.80
2018-04-09T03:04:20.759Z,54.79
2018-04-09T03:05:20.683Z,56.98
2018-04-09T03:07:12.464Z,55.17
2018-04-09T03:08:12.387Z,54.03
2018-04-09T03:10:04.139Z,54.98
2018-04-09T03:11:04.073Z,54.22
2018-04-09T03:12:55.830Z,53.34
2018-04-09T03:13:55.757Z,53.24
2018-04-09T03:15:47.563Z,52.39
2018-04-09T03:16:47.524Z,49.25
2018-04-09T03:18:39.284Z,49.35
2018-04-09T03:19:39.209Z,51.43
2018-04-09T03:21:30.962Z,49.91
2018-04-09T03:22:30.897Z,50.10
2018-04-09T03:24:22.662Z,49.73
2018-04-09T03:25:22.589Z,50.01
2018-04-09T03:27:14.350Z,49.06
2018-04-09T03:28:14.269Z,46.30
2018-04-09T03:30:06.028Z,46.30
2018-04-09T03:31:05.959Z,44.68
2018-04-09T03:32:57.725Z,45.07
2018-04-09T03:33:57.710Z,45.54
2018-04-09T03:35:49.434Z,46.68
2018-04-09T03:36:49.344Z,44.68
2018-04-09T03:38:41.115Z,46.49
2018-04-09T03:39:41.037Z,48.49
2018-04-09T03:41:32.797Z,47.44
2018-04-09T03:42:32.730Z,45.92
2018-04-09T03:44:24.497Z,43.26
2018-04-09T03:45:24.422Z,42.57
2018-04-09T03:47:16.170Z,42.19
2018-04-09T03:48:16.108Z,43.33
2018-04-09T03:50:07.887Z,42.00
2018-04-09T03:51:07.807Z,39.15
2018-04-09T03:52:59.576Z,37.84
2018-04-09T03:53:59.486Z,37.93
2018-04-09T03:55:51.267Z,37.44
2018-04-09T03:56:51.193Z,38.98
2018-04-09T03:58:43.024Z,44.21
2018-04-09T03:59:42.916Z,41.62
2018-04-09T04:01:34.662Z,40.69
2018-04-09T04:02:34.595Z,41.55
2018-04-09T04:04:26.362Z,43.93
2018-04-09T04:05:26.283Z,44.38
2018-04-09T04:07:18.056Z,43.80
2018-04-09T04:08:17.962Z,41.74
2018-04-09T04:10:09.726Z,41.62
2018-04-09T04:11:09.650Z,42.60
2018-04-09T04:13:01.427Z,42.67
2018-04-09T04:14:01.344Z,43.71
2018-04-09T04:15:53.102Z,44.97
2018-04-09T04:16:53.042Z,43.14
2018-04-09T04:18:44.829Z,48.66
2018-04-09T04:19:44.750Z,47.89
2018-04-09T04:21:36.494Z,43.14
2018-04-09T04:22:36.422Z,41.81
2018-04-09T04:24:28.202Z,41.24
2018-04-09T04:25:28.115Z,41.14
2018-04-09T04:27:19.871Z,39.34
2018-04-09T04:28:19.803Z,39.15
2018-04-09T04:30:11.625Z,42.47
2018-04-09T04:31:11.545Z,40.86
2018-04-09T04:33:03.259Z,42.38
2018-04-09T04:34:03.193Z,44.67
2018-04-09T04:35:54.997Z,43.52
2018-04-09T04:36:54.919Z,41.91
2018-04-09T04:38:46.668Z,42.38
2018-04-09T04:39:46.611Z,41.05
2018-04-09T04:41:38.383Z,38.29
2018-04-09T04:42:38.297Z,38.20
2018-04-09T04:44:30.063Z,37.82
2018-04-09T04:45:29.984Z,37.92
2018-04-09T04:47:21.751Z,41.46
2018-04-09T04:48:21.699Z,44.49
2018-04-09T04:50:13.456Z,45.90
2018-04-09T04:51:13.373Z,45.04
2018-04-09T04:53:05.119Z,45.52
2018-04-09T04:54:05.054Z,44.38
2018-04-09T04:55:56.906Z,42.00
2018-04-09T04:56:56.780Z,42.19
2018-04-09T04:58:48.533Z,42.38
2018-04-09T04:59:48.471Z,41.14
2018-04-09T05:01:40.238Z,41.26
2018-04-09T05:02:40.164Z,42.02
2018-04-09T05:04:31.956Z,43.45
2018-04-09T05:05:31.886Z,43.93
2018-04-09T05:07:23.804Z,45.92
2018-04-09T05:08:23.608Z,46.97
2018-04-09T05:10:15.386Z,50.01
2018-04-09T05:11:15.307Z,50.01
2018-04-09T05:13:07.084Z,50.79
2018-04-09T05:14:07.019Z,50.79
2018-04-09T05:15:58.846Z,53.84
2018-04-09T05:16:58.765Z,53.46
2018-04-09T05:18:50.525Z,54.98
2018-04-09T05:19:50.460Z,54.03
2018-04-09T05:21:42.265Z,55.74
2018-04-09T05:22:42.166Z,52.89
2018-04-09T05:24:33.934Z,54.32
2018-04-09T05:25:33.863Z,54.22
2018-04-09T05:27:25.638Z,53.94
2018-04-09T05:28:25.560Z,52.89
2018-04-09T05:30:17.409Z,56.82
2018-04-09T05:31:17.328Z,55.10
2018-04-09T05:33:09.099Z,57.96
2018-04-09T05:34:09.054Z,60.72
2018-04-09T05:36:00.817Z,60.05
2018-04-09T05:37:00.737Z,64.15
2018-04-09T05:38:52.571Z,61.19
2018-04-09T05:39:52.444Z,61.00
2018-04-09T05:41:44.226Z,62.46
2018-04-09T05:42:44.138Z,62.18
2018-04-09T05:44:35.960Z,66.37
2018-04-09T05:45:35.897Z,70.27
2018-04-09T05:47:27.687Z,71.73
2018-04-09T05:48:27.612Z,71.83
2018-04-09T05:50:19.395Z,81.40
2018-04-09T05:51:19.476Z,82.30
2018-04-09T05:53:11.177Z,87.21
2018-04-09T05:54:11.095Z,91.78
2018-04-09T05:56:02.882Z,95.17
2018-04-09T05:57:02.806Z,97.18
2018-04-09T05:58:54.574Z,99.99
2018-04-09T05:59:54.513Z,99.99
2018-04-09T06:01:46.311Z,99.99
2018-04-09T06:02:46.215Z,99.99
2018-04-09T06:04:37.989Z,99.99
2018-04-09T06:05:37.947Z,99.99
2018-04-09T06:07:29.714Z,99.99
2018-04-09T06:08:29.625Z,99.99
2018-04-09T06:10:21.409Z,99.99
2018-04-09T06:11:21.330Z,99.99
2018-04-09T06:13:13.144Z,99.99
2018-04-09T06:14:13.054Z,99.99
2018-04-09T06:16:04.943Z,99.99
2018-04-09T06:17:04.762Z,99.99
2018-04-09T06:18:56.544Z,99.99
2018-04-09T06:19:56.502Z,99.99
2018-04-09T06:21:48.278Z,99.99
2018-04-09T06:22:48.202Z,99.99
2018-04-09T06:24:39.976Z,99.99
2018-04-09T06:25:39.925Z,99.99
2018-04-09T06:27:31.689Z,98.82
2018-04-09T06:28:31.668Z,95.40
2018-04-09T06:30:23.403Z,84.88
2018-04-09T06:31:23.378Z,85.65
2018-04-09T06:33:15.145Z,81.56
2018-04-09T06:34:15.074Z,78.86
2018-04-09T06:36:06.863Z,74.38
2018-04-09T06:37:06.797Z,67.74
2018-04-09T06:38:58.619Z,67.93
2018-04-09T06:39:58.564Z,71.14
2018-04-09T06:41:50.357Z,68.06
2018-04-09T06:42:50.296Z,65.30
2018-04-09T06:44:42.087Z,65.30
2018-04-09T06:45:42.016Z,66.75
2018-04-09T06:47:33.840Z,63.60
2018-04-09T06:48:33.736Z,63.12
2018-04-09T06:50:25.507Z,61.96
2018-04-09T06:51:25.444Z,61.41
2018-04-09T06:53:17.248Z,56.59
2018-04-09T06:54:17.178Z,57.78
2018-04-09T06:56:08.961Z,54.79
2018-04-09T06:57:08.907Z,54.05
2018-04-09T06:59:00.747Z,54.05
2018-04-09T07:00:00.651Z,52.21
2018-04-09T07:01:52.454Z,52.43
2018-04-09T07:02:52.365Z,50.79
2018-04-09T07:04:44.173Z,52.72
2018-04-09T07:05:44.120Z,51.46
2018-04-09T07:07:36.089Z,51.01
2018-04-09T07:08:35.872Z,49.85
2018-04-09T07:10:27.643Z,50.13
2018-04-09T07:11:27.593Z,49.37
2018-04-09T07:13:19.426Z,47.16
2018-04-09T07:14:19.332Z,47.74
2018-04-09T07:16:11.135Z,47.28
2018-04-09T07:17:11.085Z,47.96
2018-04-09T07:19:02.864Z,48.16
2018-04-09T07:20:02.801Z,47.09
2018-04-09T07:21:54.588Z,45.76
2018-04-09T07:22:54.520Z,45.57
2018-04-09T07:24:46.403Z,44.91
2018-04-09T07:25:46.285Z,44.74
2018-04-09T07:27:38.139Z,44.35
2018-04-09T07:28:38.100Z,43.87
2018-04-09T07:30:29.838Z,43.50
2018-04-09T07:31:29.778Z,43.02
2018-04-09T07:33:21.580Z,43.09
2018-04-09T07:34:21.510Z,43.21
2018-04-09T07:36:13.309Z,43.60
2018-04-09T07:37:13.246Z,43.33
2018-04-09T07:39:05.060Z,41.95
2018-04-09T07:40:04.997Z,42.44
2018-04-09T07:41:56.774Z,42.32
2018-04-09T07:42:56.720Z,42.92
2018-04-09T07:44:48.562Z,42.17
2018-04-09T07:45:48.460Z,42.65
2018-04-09T07:47:40.284Z,41.61
2018-04-09T07:48:40.199Z,41.51
2018-04-09T07:50:32.003Z,39.98
2018-04-09T07:51:31.946Z,39.01
2018-04-09T07:53:23.770Z,38.87
2018-04-09T07:54:23.680Z,39.94
2018-04-09T07:56:15.455Z,38.09
2018-04-09T07:57:15.415Z,39.84
2018-04-09T07:59:07.267Z,40.44
2018-04-09T08:00:07.220Z,39.49
2018-04-09T08:01:59.018Z,39.11
2018-04-09T08:02:58.939Z,37.74
2018-04-09T08:04:50.750Z,39.32
2018-04-09T08:05:50.683Z,38.64
2018-04-09T08:07:42.480Z,36.68
2018-04-09T08:08:42.421Z,39.11
2018-04-09T08:10:34.227Z,38.64
2018-04-09T08:11:34.196Z,37.86
2018-04-09T08:13:25.963Z,38.27
2018-04-09T08:14:25.924Z,36.40
2018-04-09T08:16:17.718Z,37.10
2018-04-09T08:17:17.654Z,38.15
2018-04-09T08:19:09.487Z,38.21
2018-04-09T08:20:09.445Z,39.29
2018-04-09T08:22:01.236Z,38.13
2018-04-09T08:23:01.168Z,38.13
2018-04-09T08:24:53.002Z,37.88
2018-04-09T08:25:52.966Z,37.49
2018-04-09T08:27:44.808Z,36.52
2018-04-09T08:28:44.764Z,36.99
2018-04-09T08:30:36.534Z,38.17
2018-04-09T08:31:36.481Z,37.22
2018-04-09T08:33:28.307Z,35.66
2018-04-09T08:34:28.296Z,36.44
2018-04-09T08:36:20.145Z,36.18
2018-04-09T08:37:20.131Z,35.99
2018-04-09T08:39:11.907Z,35.70
2018-04-09T08:40:11.853Z,35.50
2018-04-09T08:42:03.660Z,35.60
2018-04-09T08:43:03.608Z,35.37
2018-04-09T08:44:55.542Z,37.22
2018-04-09T08:45:55.358Z,35.84
2018-04-09T08:47:47.183Z,36.21
2018-04-09T08:48:47.166Z,37.22
2018-04-09T08:50:38.925Z,35.96
2018-04-09T08:51:38.876Z,35.57
2018-04-09T08:53:30.739Z,35.57
2018-04-09T08:54:30.673Z,36.63
2018-04-09T08:56:22.616Z,36.04
2018-04-09T08:57:22.502Z,36.52
2018-04-09T08:59:14.401Z,36.22
2018-04-09T09:00:14.291Z,35.24
2018-04-09T09:02:06.087Z,37.20
2018-04-09T09:03:06.041Z,37.12
2018-04-09T09:04:57.833Z,36.07
2018-04-09T09:05:57.805Z,34.61
2018-04-09T09:07:49.579Z,35.11
2018-04-09T09:08:49.540Z,34.72
2018-04-09T09:10:41.371Z,35.02
2018-04-09T09:11:41.309Z,34.63
2018-04-09T09:13:33.130Z,35.33
2018-04-09T09:14:33.064Z,35.91
2018-04-09T09:16:24.889Z,34.66
2018-04-09T09:17:24.842Z,33.59
2018-04-09T09:19:16.685Z,33.61
2018-04-09T09:20:16.614Z,33.02
2018-04-09T09:22:08.469Z,32.91
2018-04-09T09:23:08.374Z,33.70
2018-04-09T09:25:00.196Z,32.21
2018-04-09T09:26:00.120Z,33.85
2018-04-09T09:27:51.932Z,33.17
2018-04-09T09:28:51.886Z,33.18
2018-04-09T09:30:43.778Z,34.16
2018-04-09T09:31:43.666Z,34.74
2018-04-09T09:33:35.550Z,33.77
2018-04-09T09:34:35.431Z,33.85
2018-04-09T09:36:27.300Z,34.52
2018-04-09T09:37:27.312Z,34.72
2018-04-09T09:39:19.145Z,34.72
2018-04-09T09:40:19.074Z,34.14
2018-04-09T09:42:10.880Z,34.84
2018-04-09T09:43:10.872Z,33.58
2018-04-09T09:45:02.651Z,33.61
2018-04-09T09:46:02.610Z,32.92
2018-04-09T09:47:54.392Z,32.63
2018-04-09T09:48:54.348Z,32.63
2018-04-09T09:50:46.167Z,32.24
2018-04-09T09:51:46.106Z,32.73
2018-04-09T09:53:37.993Z,32.43
2018-04-09T09:54:37.942Z,33.22
2018-04-09T09:56:29.814Z,32.40
2018-04-09T09:57:29.755Z,33.96
2018-04-09T09:59:21.577Z,32.86
2018-04-09T10:00:21.529Z,33.41
2018-04-09T10:02:13.392Z,34.53
2018-04-09T10:03:13.351Z,38.12
2018-04-09T10:05:05.291Z,38.29
2018-04-09T10:06:05.105Z,37.21
2018-04-09T10:07:56.931Z,38.06
2018-04-09T10:08:56.917Z,37.98
2018-04-09T10:10:48.839Z,39.37
2018-04-09T10:11:48.790Z,37.84
2018-04-09T10:13:40.625Z,36.02
2018-04-09T10:14:40.570Z,36.32
2018-04-09T10:16:32.341Z,34.70
2018-04-09T10:17:32.311Z,33.54
2018-04-09T10:19:24.180Z,34.43
2018-04-09T10:20:24.087Z,34.20
2018-04-09T10:22:15.898Z,33.64
2018-04-09T10:23:15.885Z,34.43
2018-04-09T10:25:07.674Z,34.95
2018-04-09T10:26:07.639Z,36.51
2018-04-09T10:27:59.482Z,39.24
2018-04-09T10:28:59.370Z,41.27
2018-04-09T10:30:51.273Z,41.72
2018-04-09T10:31:51.226Z,39.32
2018-04-09T10:33:43.214Z,37.92
2018-04-09T10:34:42.940Z,37.35
2018-04-09T10:36:34.792Z,34.85
2018-04-09T10:37:34.718Z,36.21
2018-04-09T10:39:26.553Z,37.10
2018-04-09T10:40:26.488Z,37.12
2018-04-09T10:42:18.386Z,35.49
2018-04-09T10:43:18.324Z,33.83
2018-04-09T10:45:10.122Z,33.80
2018-04-09T10:46:10.090Z,35.25
2018-04-09T10:48:01.883Z,35.68
2018-04-09T10:49:01.837Z,35.58
2018-04-09T10:50:53.673Z,35.84
2018-04-09T10:51:53.585Z,35.47
2018-04-09T10:53:45.423Z,35.27
2018-04-09T10:54:45.383Z,35.08
2018-04-09T10:56:37.222Z,35.27
2018-04-09T10:57:37.169Z,34.79
2018-04-09T10:59:29.034Z,34.20
2018-04-09T11:00:28.982Z,34.67
2018-04-09T11:02:20.785Z,37.39
2018-04-09T11:03:20.757Z,36.44
2018-04-09T11:05:12.566Z,35.13
2018-04-09T11:06:12.528Z,36.56
2018-04-09T11:08:04.348Z,37.28
2018-04-09T11:09:04.298Z,38.06
2018-04-09T11:10:56.151Z,39.70
2018-04-09T11:11:56.079Z,40.48
2018-04-09T11:13:47.958Z,40.19
2018-04-09T11:14:47.844Z,38.89
2018-04-09T11:16:39.683Z,41.89
2018-04-09T11:17:39.626Z,40.83
2018-04-09T11:19:31.425Z,39.67
2018-04-09T11:20:31.376Z,39.18
2018-04-09T11:22:23.212Z,40.42
2018-04-09T11:23:23.163Z,40.71
2018-04-09T11:25:14.995Z,40.69
2018-04-09T11:26:14.957Z,40.88
2018-04-09T11:28:06.717Z,41.27
2018-04-09T11:29:06.665Z,41.39
2018-04-09T11:30:58.546Z,40.20
2018-04-09T11:31:58.477Z,41.17
2018-04-09T11:33:50.360Z,40.67
2018-04-09T11:34:50.297Z,41.35
2018-04-09T11:36:42.115Z,41.63
2018-04-09T11:37:42.033Z,42.31
2018-04-09T11:39:33.865Z,41.44
2018-04-09T11:40:33.831Z,41.44
2018-04-09T11:42:25.654Z,41.73
2018-04-09T11:43:25.512Z,41.73
2018-04-09T11:45:17.345Z,41.83
2018-04-09T11:46:17.240Z,41.63
2018-04-09T11:48:09.040Z,41.56
2018-04-09T11:49:08.970Z,41.44
2018-04-09T11:51:00.806Z,42.31
2018-04-09T11:52:00.826Z,42.89
2018-04-09T11:53:52.547Z,42.48
2018-04-09T11:54:52.463Z,42.77
2018-04-09T11:56:44.267Z,43.64
2018-04-09T11:58:55.390Z,43.81
2018-04-09T11:59:55.309Z,43.52
2018-04-09T12:01:47.107Z,44.32
2018-04-09T12:02:47.055Z,43.45
2018-04-09T12:04:38.898Z,44.42
2018-04-09T12:05:38.828Z,44.42
2018-04-09T12:07:30.613Z,43.16
2018-04-09T12:08:30.551Z,43.54
2018-04-09T12:10:22.405Z,43.84
2018-04-09T12:11:22.306Z,43.93
2018-04-09T12:13:14.074Z,43.64
2018-04-09T12:14:14.067Z,43.74
2018-04-09T12:16:05.837Z,44.60
2018-04-09T12:17:05.732Z,44.51
2018-04-09T12:18:57.540Z,45.55
2018-04-09T12:19:57.487Z,46.13
2018-04-09T12:21:49.265Z,46.03
2018-04-09T12:22:49.199Z,45.84
2018-04-09T12:24:40.998Z,45.26
2018-04-09T12:25:41.015Z,46.11
2018-04-09T12:27:32.752Z,47.36
2018-04-09T12:28:32.665Z,46.51
2018-04-09T12:30:24.531Z,45.65
2018-04-09T12:31:24.386Z,46.33
2018-04-09T12:33:16.209Z,46.23
2018-04-09T12:34:16.110Z,45.45
2018-04-09T12:36:07.923Z,45.84
2018-04-09T12:37:07.920Z,44.70
2018-04-09T12:38:59.653Z,45.09
2018-04-09T12:39:59.611Z,44.42
2018-04-09T12:41:51.378Z,45.76
2018-04-09T12:42:51.311Z,44.51
2018-04-09T12:44:43.106Z,44.20
2018-04-09T12:45:43.031Z,44.42
2018-04-09T12:47:34.825Z,44.22
2018-04-09T12:48:34.751Z,44.03
2018-04-09T12:50:26.552Z,44.29
2018-04-09T12:51:26.496Z,44.10
2018-04-09T12:53:18.317Z,43.43
2018-04-09T12:54:18.226Z,43.91
2018-04-09T12:56:10.025Z,44.29
2018-04-09T12:57:09.981Z,44.01
2018-04-09T12:59:01.831Z,44.49
2018-04-09T13:00:01.753Z,44.49
2018-04-09T13:01:53.553Z,44.59
2018-04-09T13:02:53.494Z,44.49
2018-04-09T13:04:45.295Z,44.97
2018-04-09T13:05:45.210Z,43.91
2018-04-09T13:07:37.054Z,43.16
2018-04-09T13:08:36.980Z,42.75
2018-04-09T13:10:28.769Z,42.46
2018-04-09T13:11:28.710Z,42.18
2018-04-09T13:13:20.488Z,43.24
2018-04-09T13:14:20.411Z,42.94
2018-04-09T13:16:12.207Z,44.59
2018-04-09T13:17:12.143Z,43.62
2018-04-09T13:19:03.950Z,43.43
2018-04-09T13:20:03.900Z,43.72
2018-04-09T13:21:55.670Z,43.52
2018-04-09T13:22:55.602Z,43.43
2018-04-09T13:24:47.429Z,43.72
2018-04-09T13:25:47.353Z,42.75
2018-04-09T13:27:39.201Z,44.10
2018-04-09T13:28:39.159Z,43.26
2018-04-09T13:30:30.972Z,43.24
2018-04-09T13:31:30.894Z,43.45
2018-04-09T13:33:22.768Z,42.29
2018-04-09T13:34:22.677Z,42.58
2018-04-09T13:36:14.495Z,42.60
2018-04-09T13:37:14.417Z,42.87
2018-04-09T13:39:06.220Z,42.39
2018-04-09T13:40:06.152Z,44.32
2018-04-09T13:41:57.920Z,43.93
2018-04-09T13:42:57.864Z,43.93
2018-04-09T13:44:49.687Z,43.84
2018-04-09T13:45:49.606Z,44.10
2018-04-09T13:47:41.568Z,44.78
2018-04-09T13:48:41.330Z,44.49
2018-04-09T13:50:33.143Z,45.07
2018-04-09T13:51:33.035Z,44.87
2018-04-09T13:53:24.889Z,44.32
2018-04-09T13:54:24.747Z,44.51
2018-04-09T13:56:16.559Z,42.46
2018-04-09T13:57:16.523Z,43.24
2018-04-09T13:59:08.289Z,42.56
2018-04-09T14:00:08.250Z,43.62
2018-04-09T14:01:59.999Z,43.26
2018-04-09T14:02:59.962Z,43.06
2018-04-09T14:04:51.738Z,43.54
2018-04-09T14:05:51.671Z,43.54
2018-04-09T14:07:43.508Z,43.74
2018-04-09T14:08:43.419Z,44.51
2018-04-09T14:10:35.203Z,43.43
2018-04-09T14:11:35.130Z,44.03
2018-04-09T14:13:26.914Z,44.60
2018-04-09T14:14:26.849Z,44.12
2018-04-09T14:16:18.679Z,43.93
2018-04-09T14:17:18.580Z,43.84
2018-04-09T14:19:10.400Z,44.42
2018-04-09T14:20:10.325Z,44.60
2018-04-09T14:22:02.127Z,44.42
2018-04-09T14:23:02.076Z,44.32
2018-04-09T14:24:53.874Z,45.50
2018-04-09T14:25:53.817Z,45.50
2018-04-09T14:27:45.597Z,45.67
2018-04-09T14:28:45.553Z,45.76
2018-04-09T14:30:37.344Z,44.73
2018-04-09T14:31:37.269Z,44.92
2018-04-09T14:33:29.088Z,45.79
2018-04-09T14:34:29.041Z,44.53
2018-04-09T14:36:20.774Z,44.60
2018-04-09T14:37:20.718Z,45.00
2018-04-09T14:39:12.532Z,46.61
2018-04-09T14:40:12.452Z,47.00
2018-04-09T14:42:04.264Z,46.51
2018-04-09T14:43:04.178Z,46.23
2018-04-09T14:44:56.006Z,48.25
2018-04-09T14:45:55.925Z,46.90
2018-04-09T14:47:47.720Z,46.90
2018-04-09T14:48:47.681Z,47.00
2018-04-09T14:50:39.468Z,47.87
2018-04-09T14:51:39.392Z,46.33
2018-04-09T14:53:31.209Z,46.61
2018-04-09T14:54:31.139Z,47.38
2018-04-09T14:56:22.973Z,47.87
2018-04-09T14:57:22.887Z,46.90
2018-04-09T14:59:14.805Z,46.71
2018-04-09T15:00:14.618Z,46.73
2018-04-09T15:02:06.435Z,46.64
2018-04-09T15:03:06.349Z,46.44
2018-04-09T15:04:58.164Z,45.86
2018-04-09T15:05:58.087Z,45.57
2018-04-09T15:07:49.892Z,46.92
2018-04-09T15:08:49.833Z,46.44
2018-04-09T15:10:41.664Z,46.83
2018-04-09T15:11:41.576Z,46.71
2018-04-09T15:13:33.529Z,46.44
2018-04-09T15:14:33.320Z,45.84
2018-04-09T15:16:25.084Z,45.67
2018-04-09T15:17:25.007Z,46.64
2018-04-09T15:19:16.872Z,46.54
2018-04-09T15:20:16.771Z,45.86
2018-04-09T15:22:08.559Z,46.81
2018-04-09T15:23:08.506Z,47.12
2018-04-09T15:25:00.340Z,46.73
2018-04-09T15:26:00.249Z,45.76
2018-04-09T15:27:52.092Z,45.76
2018-04-09T15:28:52.019Z,46.81
2018-04-09T15:30:43.821Z,46.33
2018-04-09T15:31:43.744Z,46.51
2018-04-09T15:33:35.550Z,47.38
2018-04-09T15:34:35.467Z,46.33
2018-04-09T15:36:27.312Z,47.77
2018-04-09T15:37:27.246Z,47.29
2018-04-09T15:39:19.006Z,48.35
2018-04-09T15:40:18.954Z,47.77
2018-04-09T15:42:10.717Z,46.81
2018-04-09T15:43:10.667Z,47.29
2018-04-09T15:45:02.498Z,46.81
2018-04-09T15:46:02.419Z,47.38
2018-04-09T15:47:54.164Z,47.38
2018-04-09T15:48:54.103Z,47.38
2018-04-09T15:50:46.019Z,47.96
2018-04-09T15:51:45.857Z,47.29
2018-04-09T15:53:37.676Z,46.81
2018-04-09T15:54:37.588Z,48.25
2018-04-09T15:56:29.442Z,47.96
2018-04-09T15:57:29.362Z,48.74
2018-04-09T15:59:21.202Z,47.87
2018-04-09T16:00:21.084Z,48.33
2018-04-09T16:02:12.855Z,47.55
2018-04-09T16:03:12.796Z,48.81
2018-04-09T16:05:04.582Z,49.19
2018-04-09T16:06:04.531Z,49.96
2018-04-09T16:07:56.303Z,50.45
2018-04-09T16:08:56.262Z,49.68
2018-04-09T16:10:48.066Z,50.93
2018-04-09T16:11:48.013Z,50.64
2018-04-09T16:13:39.777Z,50.42
2018-04-09T16:14:39.721Z,50.84
2018-04-09T16:16:31.569Z,50.32
2018-04-09T16:17:31.515Z,51.00
2018-04-09T16:19:23.276Z,50.90
2018-04-09T16:20:23.204Z,51.00
2018-04-09T16:22:15.032Z,51.39
2018-04-09T16:23:14.925Z,51.39
2018-04-09T16:25:06.768Z,53.41
2018-04-09T16:26:06.658Z,54.57
2018-04-09T16:27:58.473Z,55.24
2018-04-09T16:28:58.388Z,55.34
2018-04-09T16:30:50.194Z,55.24
2018-04-09T16:31:50.138Z,55.54
2018-04-09T16:33:41.915Z,55.12
2018-04-09T16:34:41.888Z,56.66
2018-04-09T16:36:33.748Z,56.66
2018-04-09T16:37:33.598Z,58.11
2018-04-09T16:39:25.410Z,59.17
2018-04-09T16:40:25.298Z,59.36
2018-04-09T16:42:17.187Z,59.27
2018-04-09T16:43:17.108Z,58.49
2018-04-09T16:45:08.886Z,59.36
2018-04-09T16:46:08.823Z,58.01
2018-04-09T16:48:00.588Z,57.82
2018-04-09T16:49:00.576Z,57.05
2018-04-09T16:50:52.358Z,58.59
2018-04-09T16:51:52.293Z,60.13
2018-04-09T16:53:44.092Z,59.65
2018-04-09T16:54:44.037Z,59.65
2018-04-09T16:56:35.854Z,61.35
2018-04-09T16:57:35.819Z,59.55
2018-04-09T16:59:27.559Z,61.07
2018-04-09T17:00:27.537Z,61.35
2018-04-09T17:02:19.302Z,61.45
2018-04-09T17:03:19.223Z,60.20
2018-04-09T17:05:11.015Z,62.41
2018-04-09T17:06:10.934Z,62.99
2018-04-09T17:08:02.721Z,63.47
2018-04-09T17:09:02.657Z,65.20
2018-04-09T17:10:54.499Z,66.65
2018-04-09T17:11:54.408Z,67.03
2018-04-09T17:13:46.229Z,67.10
2018-04-09T17:14:46.200Z,69.83
2018-04-09T17:16:38.140Z,70.79
2018-04-09T17:17:38.076Z,71.24
2018-04-09T17:19:29.942Z,75.09
2018-04-09T17:20:29.847Z,75.96
2018-04-09T17:22:21.660Z,74.90
2018-04-09T17:23:21.587Z,74.22
2018-04-09T17:25:13.371Z,77.46
2018-04-09T17:26:13.316Z,78.17
2018-04-09T17:28:05.072Z,77.65
2018-04-09T17:29:05.258Z,80.15
2018-04-09T17:30:56.871Z,82.75
2018-04-09T17:31:56.751Z,83.91
2018-04-09T17:33:48.514Z,82.17
2018-04-09T17:34:48.453Z,85.64
2018-04-09T17:36:40.276Z,82.37
2018-04-09T17:37:40.199Z,82.46
2018-04-09T17:39:31.968Z,87.95
2018-04-09T17:40:31.941Z,83.23
2018-04-09T17:42:23.701Z,87.95
2018-04-09T17:43:23.627Z,87.27
2018-04-09T17:45:15.418Z,86.85
2018-04-09T17:46:15.358Z,87.90
2018-04-09T17:48:07.147Z,90.69
2018-04-09T17:49:07.077Z,90.12
2018-04-09T17:50:58.872Z,91.75
2018-04-09T17:51:58.793Z,91.08
2018-04-09T17:53:50.585Z,94.49
2018-04-09T17:54:50.532Z,94.21
2018-04-09T17:56:42.324Z,94.11
2018-04-09T17:57:42.238Z,94.30
2018-04-09T17:59:34.015Z,97.47
2018-04-09T18:00:33.972Z,96.99
2018-04-09T18:02:25.754Z,99.25
2018-04-09T18:03:25.713Z,99.99
2018-04-09T18:05:17.465Z,99.99
2018-04-09T18:06:17.389Z,99.99
2018-04-09T18:08:09.174Z,99.99
2018-04-09T18:09:09.116Z,99.99
2018-04-09T18:11:00.919Z,99.99
2018-04-09T18:12:00.849Z,99.99
2018-04-09T18:13:52.647Z,99.99
2018-04-09T18:14:52.590Z,99.99
2018-04-09T18:16:44.395Z,99.99
2018-04-09T18:17:44.286Z,99.99
2018-04-09T18:19:36.105Z,99.99
2018-04-09T18:20:36.006Z,99.99
2018-04-09T18:22:27.873Z,99.99
2018-04-09T18:23:27.755Z,99.99
2018-04-09T18:25:19.637Z,99.99
2018-04-09T18:26:19.566Z,99.99